Time,TemperatureF,DewpointF,PressureIn,WindDirection,WindDirectionDegrees,WindSpeedMPH,WindSpeedGustMPH,Humidity,HourlyPrecipIn,Conditions,Clouds,dailyrainin,SoftwareType,DateUTC
2013-01-21 00:00:00,29.7,30.0,30.29,SW,231,0.0,0.0,99,0.00,,,0.00,weatherlink.com 1.10,2013-01-21 08:00:00,
2013-01-21 00:17:00,29.7,30.0,30.29,SW,231,0.0,0.0,99,0.00,,,0.00,weatherlink.com 1.10,2013-01-21 08:17:00,
2013-01-21 00:31:00,29.4,29.0,30.29,South,187,0.0,0.0,99,0.00,,,0.00,weatherlink.com 1.10,2013-01-21 08:31:00,
2013-01-21 00:46:00,29.3,29.0,30.29,WSW,242,0.0,1.0,99,0.00,,,0.00,weatherlink.com 1.10,2013-01-21 08:46:00,
2013-01-21 01:01:00,29.3,29.0,30.29,SW,214,0.0,3.0,99,0.00,,,0.00,weatherlink.com 1.10,2013-01-21 09:01:00,
2013-01-21 01:16:00,29.2,29.0,30.29,SW,229,0.0,2.0,99,0.00,,,0.00,weatherlink.com 1.10,2013-01-21 09:16:00,
2013-01-21 01:31:00,29.3,29.0,30.29,SSW,198,0.0,0.0,99,0.00,,,0.00,weatherlink.com 1.10,2013-01-21 09:31:00,
2013-01-21 01:46:00,29.5,29.0,30.29,South,186,0.0,0.0,99,0.00,,,0.00,weatherlink.com 1.10,2013-01-21 09:46:00,
2013-01-21 02:03:00,29.4,29.0,30.29,North,1,0.0,0.0,99,0.00,,,0.00,weatherlink.com 1.10,2013-01-21 10:03:00,
2013-01-21 02:16:00,29.3,29.0,30.29,NE,53,0.0,0.0,99,0.00,,,0.00,weatherlink.com 1.10,2013-01-21 10:16:00,
2013-01-21 02:31:00,29.3,29.0,30.29,North,353,0.0,0.0,99,0.00,,,0.00,weatherlink.com 1.10,2013-01-21 10:31:00,
2013-01-21 02:46:00,28.9,29.0,30.29,SSE,160,0.0,0.0,99,0.00,,,0.00,weatherlink.com 1.10,2013-01-21 10:46:00,
2013-01-21 03:01:00,28.5,28.0,30.29,WSW,244,0.0,0.0,99,0.00,,,0.00,weatherlink.com 1.10,2013-01-21 11:01:00,
2013-01-21 03:18:00,28.3,28.0,30.28,NW,317,0.0,1.0,99,0.00,,,0.00,weatherlink.com 1.10,2013-01-21 11:18:00,
2013-01-21 03:46:00,27.6,27.0,30.28,WSW,252,0.0,2.0,99,0.00,,,0.00,weatherlink.com 1.10,2013-01-21 11:46:00,
2013-01-21 04:01:00,27.6,27.0,30.28,SW,215,0.0,1.0,99,0.00,,,0.00,weatherlink.com 1.10,2013-01-21 12:01:00,
2013-01-21 04:16:00,27.6,27.0,30.27,SW,215,0.0,0.0,99,0.00,,,0.00,weatherlink.com 1.10,2013-01-21 12:16:00,
2013-01-21 04:31:00,27.3,27.0,30.27,SW,214,0.0,1.0,98,0.00,,,0.00,weatherlink.com 1.10,2013-01-21 12:31:00,
2013-01-21 04:46:00,27.3,27.0,30.27,SW,218,0.0,1.0,98,0.00,,,0.00,weatherlink.com 1.10,2013-01-21 12:46:00,
2013-01-21 05:01:00,27.1,27.0,30.27,SW,218,0.0,0.0,98,0.00,,,0.00,weatherlink.com 1.10,2013-01-21 13:01:00,
2013-01-21 05:16:00,27.0,27.0,30.26,WNW,300,0.0,1.0,98,0.00,,,0.00,weatherlink.com 1.10,2013-01-21 13:16:00,
2013-01-21 05:31:00,26.7,26.0,30.25,WSW,239,0.0,1.0,98,0.00,,,0.00,weatherlink.com 1.10,2013-01-21 13:31:00,
2013-01-21 05:46:00,26.4,26.0,30.25,SW,231,0.0,1.0,98,0.00,,,0.00,weatherlink.com 1.10,2013-01-21 13:46:00,
2013-01-21 06:01:00,26.3,26.0,30.24,SSW,206,0.0,1.0,98,0.00,,,0.00,weatherlink.com 1.10,2013-01-21 14:01:00,
2013-01-21 06:16:00,26.2,26.0,30.24,SW,215,0.0,1.0,98,0.00,,,0.00,weatherlink.com 1.10,2013-01-21 14:16:00,
2013-01-21 06:31:00,26.0,26.0,30.23,SW,216,0.0,1.0,98,0.00,,,0.00,weatherlink.com 1.10,2013-01-21 14:31:00,
2013-01-21 07:02:00,25.7,25.0,30.23,ENE,58,0.0,0.0,98,0.00,,,0.00,weatherlink.com 1.10,2013-01-21 15:02:00,
2013-01-21 07:17:00,25.7,25.0,30.22,ENE,58,0.0,0.0,98,0.00,,,0.00,weatherlink.com 1.10,2013-01-21 15:17:00,
2013-01-21 07:32:00,25.2,25.0,30.22,ENE,58,0.0,0.0,98,0.00,,,0.00,weatherlink.com 1.10,2013-01-21 15:32:00,
2013-01-21 07:47:00,25.2,25.0,30.22,NE,46,0.0,0.0,98,0.00,,,0.00,weatherlink.com 1.10,2013-01-21 15:47:00,
2013-01-21 08:02:00,25.0,25.0,30.23,NE,44,0.0,0.0,98,0.00,,,0.00,weatherlink.com 1.10,2013-01-21 16:02:00,
2013-01-21 08:17:00,24.7,24.0,30.23,NE,54,0.0,1.0,98,0.00,,,0.00,weatherlink.com 1.10,2013-01-21 16:17:00,
2013-01-21 08:32:00,24.8,24.0,30.24,SW,226,0.0,0.0,98,0.00,,,0.00,weatherlink.com 1.10,2013-01-21 16:32:00,
2013-01-21 08:47:00,25.0,25.0,30.24,West,259,0.0,0.0,98,0.00,,,0.00,weatherlink.com 1.10,2013-01-21 16:47:00,
2013-01-21 09:02:00,25.7,25.0,30.25,SW,219,0.0,0.0,98,0.00,,,0.00,weatherlink.com 1.10,2013-01-21 17:02:00,
2013-01-21 09:17:00,25.9,25.0,30.25,SW,236,0.0,0.0,98,0.00,,,0.00,weatherlink.com 1.10,2013-01-21 17:17:00,
2013-01-21 09:32:00,26.0,25.0,30.25,WNW,303,0.0,0.0,97,0.00,,,0.00,weatherlink.com 1.10,2013-01-21 17:32:00,
2013-01-21 10:02:00,26.7,26.0,30.24,NE,34,0.0,0.0,97,0.00,,,0.00,weatherlink.com 1.10,2013-01-21 18:02:00,
2013-01-21 10:17:00,26.5,26.0,30.25,SW,219,0.0,1.0,97,0.00,,,0.00,weatherlink.com 1.10,2013-01-21 18:17:00,
2013-01-21 10:32:00,27.3,27.0,30.25,West,262,0.0,1.0,98,0.00,,,0.00,weatherlink.com 1.10,2013-01-21 18:32:00,
2013-01-21 10:47:00,27.2,27.0,30.25,NE,36,0.0,1.0,97,0.00,,,0.00,weatherlink.com 1.10,2013-01-21 18:47:00,
2013-01-21 11:02:00,27.5,27.0,30.25,WNW,302,0.0,0.0,98,0.00,,,0.00,weatherlink.com 1.10,2013-01-21 19:02:00,
2013-01-21 11:17:00,28.0,27.0,30.24,WNW,283,0.0,1.0,97,0.00,,,0.00,weatherlink.com 1.10,2013-01-21 19:17:00,
2013-01-21 11:32:00,28.6,28.0,30.23,West,279,0.0,0.0,98,0.00,,,0.00,weatherlink.com 1.10,2013-01-21 19:32:00,
2013-01-21 11:47:00,30.0,30.0,30.23,West,279,0.0,0.0,99,0.00,,,0.00,weatherlink.com 1.10,2013-01-21 19:47:00,
2013-01-21 12:02:00,31.1,31.0,30.22,West,276,0.0,0.0,99,0.00,,,0.00,weatherlink.com 1.10,2013-01-21 20:02:00,
2013-01-21 12:17:00,32.2,32.0,30.21,WSW,240,0.0,1.0,98,0.00,,,0.00,weatherlink.com 1.10,2013-01-21 20:17:00,
2013-01-21 12:32:00,32.7,32.0,30.21,WSW,240,0.0,0.0,98,0.00,,,0.00,weatherlink.com 1.10,2013-01-21 20:32:00,
2013-01-21 12:47:00,33.5,33.0,30.21,NE,56,0.0,1.0,97,0.00,,,0.00,weatherlink.com 1.10,2013-01-21 20:47:00,
2013-01-21 13:02:00,34.5,34.0,30.20,SW,229,0.0,0.0,96,0.00,,,0.00,weatherlink.com 1.10,2013-01-21 21:02:00,
2013-01-21 13:17:00,34.9,34.0,30.19,NNE,22,0.0,0.0,97,0.00,,,0.00,weatherlink.com 1.10,2013-01-21 21:17:00,
2013-01-21 13:32:00,35.4,35.0,30.19,SW,230,0.0,0.0,97,0.00,,,0.00,weatherlink.com 1.10,2013-01-21 21:32:00,
2013-01-21 13:47:00,36.3,35.0,30.18,SSW,196,0.0,0.0,95,0.00,,,0.00,weatherlink.com 1.10,2013-01-21 21:47:00,
2013-01-21 14:02:00,37.4,36.0,30.17,West,264,0.0,0.0,94,0.00,,,0.00,weatherlink.com 1.10,2013-01-21 22:02:00,
2013-01-21 14:17:00,38.7,37.0,30.17,SSW,203,0.0,0.0,93,0.00,,,0.00,weatherlink.com 1.10,2013-01-21 22:17:00,
2013-01-21 14:32:00,39.1,37.0,30.16,SW,236,0.0,0.0,92,0.00,,,0.00,weatherlink.com 1.10,2013-01-21 22:32:00,
2013-01-21 14:47:00,40.1,38.0,30.16,SW,236,0.0,0.0,91,0.00,,,0.00,weatherlink.com 1.10,2013-01-21 22:47:00,
2013-01-21 15:02:00,40.4,38.0,30.16,SSE,147,0.0,0.0,89,0.00,,,0.00,weatherlink.com 1.10,2013-01-21 23:02:00,
2013-01-21 15:18:00,41.5,38.0,30.16,SSE,147,0.0,0.0,87,0.00,,,0.00,weatherlink.com 1.10,2013-01-21 23:18:00,
2013-01-21 15:33:00,41.7,38.0,30.16,WNW,285,0.0,0.0,86,0.00,,,0.00,weatherlink.com 1.10,2013-01-21 23:33:00,
2013-01-21 15:48:00,39.7,37.0,30.16,WNW,285,0.0,0.0,91,0.00,,,0.00,weatherlink.com 1.10,2013-01-21 23:48:00,
2013-01-21 16:03:00,37.6,36.0,30.16,WNW,285,0.0,0.0,93,0.00,,,0.00,weatherlink.com 1.10,2013-01-22 00:03:00,
2013-01-21 16:18:00,35.9,35.0,30.16,WNW,285,0.0,0.0,95,0.00,,,0.00,weatherlink.com 1.10,2013-01-22 00:18:00,
2013-01-21 16:33:00,34.3,33.0,30.16,WNW,285,0.0,0.0,96,0.00,,,0.00,weatherlink.com 1.10,2013-01-22 00:33:00,
2013-01-21 16:48:00,32.9,32.0,30.16,WNW,285,0.0,0.0,97,0.00,,,0.00,weatherlink.com 1.10,2013-01-22 00:48:00,
2013-01-21 17:03:00,32.0,31.0,30.16,WNW,285,0.0,0.0,97,0.00,,,0.00,weatherlink.com 1.10,2013-01-22 01:03:00,
2013-01-21 17:18:00,30.7,30.0,30.16,WNW,285,0.0,0.0,97,0.00,,,0.00,weatherlink.com 1.10,2013-01-22 01:18:00,
2013-01-21 17:33:00,29.8,29.0,30.16,WNW,285,0.0,0.0,98,0.00,,,0.00,weatherlink.com 1.10,2013-01-22 01:33:00,
2013-01-21 17:48:00,29.0,29.0,30.15,North,357,0.0,0.0,98,0.00,,,0.00,weatherlink.com 1.10,2013-01-22 01:48:00,
2013-01-21 18:03:00,28.6,28.0,30.16,North,356,0.0,0.0,98,0.00,,,0.00,weatherlink.com 1.10,2013-01-22 02:03:00,
2013-01-21 18:18:00,28.4,28.0,30.16,North,10,0.0,0.0,98,0.00,,,0.00,weatherlink.com 1.10,2013-01-22 02:18:00,
2013-01-21 18:33:00,28.1,28.0,30.17,North,10,0.0,0.0,98,0.00,,,0.00,weatherlink.com 1.10,2013-01-22 02:33:00,
2013-01-21 18:48:00,28.0,28.0,30.17,North,10,0.0,0.0,99,0.00,,,0.00,weatherlink.com 1.10,2013-01-22 02:48:00,
2013-01-21 19:03:00,27.6,27.0,30.17,North,10,0.0,0.0,99,0.00,,,0.00,weatherlink.com 1.10,2013-01-22 03:03:00,
2013-01-21 19:18:00,27.4,27.0,30.17,NNE,15,0.0,0.0,99,0.00,,,0.00,weatherlink.com 1.10,2013-01-22 03:18:00,
2013-01-21 19:33:00,27.2,27.0,30.17,NNE,15,0.0,0.0,99,0.00,,,0.00,weatherlink.com 1.10,2013-01-22 03:33:00,
2013-01-21 19:48:00,27.0,27.0,30.17,NNE,14,0.0,0.0,99,0.00,,,0.00,weatherlink.com 1.10,2013-01-22 03:48:00,
2013-01-21 20:03:00,26.9,27.0,30.17,NNE,14,0.0,0.0,99,0.00,,,0.00,weatherlink.com 1.10,2013-01-22 04:03:00,
2013-01-21 20:18:00,26.8,27.0,30.16,NNE,15,0.0,0.0,99,0.00,,,0.00,weatherlink.com 1.10,2013-01-22 04:18:00,
2013-01-21 20:33:00,26.5,26.0,30.16,NNE,14,0.0,0.0,99,0.00,,,0.00,weatherlink.com 1.10,2013-01-22 04:33:00,
2013-01-21 20:48:00,26.4,26.0,30.17,NNE,15,0.0,0.0,99,0.00,,,0.00,weatherlink.com 1.10,2013-01-22 04:48:00,
2013-01-21 21:03:00,26.3,26.0,30.17,NNE,14,0.0,0.0,99,0.00,,,0.00,weatherlink.com 1.10,2013-01-22 05:03:00,
2013-01-21 21:18:00,25.9,26.0,30.17,NNE,14,0.0,0.0,99,0.00,,,0.00,weatherlink.com 1.10,2013-01-22 05:18:00,
2013-01-21 21:33:00,25.9,26.0,30.17,NNE,14,0.0,0.0,99,0.00,,,0.00,weatherlink.com 1.10,2013-01-22 05:33:00,
2013-01-21 21:48:00,25.6,25.0,30.17,NNE,14,0.0,0.0,99,0.00,,,0.00,weatherlink.com 1.10,2013-01-22 05:48:00,
2013-01-21 22:03:00,25.6,25.0,30.16,NNE,14,0.0,0.0,99,0.00,,,0.00,weatherlink.com 1.10,2013-01-22 06:03:00,
2013-01-21 22:18:00,25.6,25.0,30.16,NNE,14,0.0,0.0,99,0.00,,,0.00,weatherlink.com 1.10,2013-01-22 06:18:00,
2013-01-21 22:33:00,25.3,25.0,30.17,NNE,14,0.0,0.0,99,0.00,,,0.00,weatherlink.com 1.10,2013-01-22 06:33:00,
2013-01-21 22:48:00,25.4,25.0,30.16,NNE,14,0.0,0.0,99,0.00,,,0.00,weatherlink.com 1.10,2013-01-22 06:48:00,
2013-01-21 23:03:00,25.0,25.0,30.16,NNE,14,0.0,0.0,99,0.00,,,0.00,weatherlink.com 1.10,2013-01-22 07:03:00,
2013-01-21 23:18:00,24.9,25.0,30.16,NNE,14,0.0,0.0,99,0.00,,,0.00,weatherlink.com 1.10,2013-01-22 07:18:00,
2013-01-21 23:33:00,24.7,25.0,30.16,NNE,14,0.0,0.0,99,0.00,,,0.00,weatherlink.com 1.10,2013-01-22 07:33:00,
2013-01-21 23:48:00,24.6,24.0,30.16,NNE,14,0.0,0.0,99,0.00,,,0.00,weatherlink.com 1.10,2013-01-22 07:48:00,